sensor_id;sensor_type;location;lat;lon;timestamp;temperature;humidity
12374;DHT22;6251;51.762;8.660;2023-05-10T01:06:31;15.20;99.90
12374;DHT22;6251;51.762;8.660;2023-05-10T02:48:06;13.70;99.90
12374;DHT22;6251;51.762;8.660;2023-05-10T02:58:07;13.60;99.90
12374;DHT22;6251;51.762;8.660;2023-05-10T04:09:09;13.30;99.90
12374;DHT22;6251;51.762;8.660;2023-05-10T04:19:10;13.20;99.90
12374;DHT22;6251;51.762;8.660;2023-05-10T04:29:11;13.10;99.90
12374;DHT22;6251;51.762;8.660;2023-05-10T04:39:11;13.10;99.90
12374;DHT22;6251;51.762;8.660;2023-05-10T04:49:12;13.00;99.90
12374;DHT22;6251;51.762;8.660;2023-05-10T04:59:14;12.70;99.90
12374;DHT22;6251;51.762;8.660;2023-05-10T05:09:15;12.70;99.90
12374;DHT22;6251;51.762;8.660;2023-05-10T05:19:15;12.60;99.90
12374;DHT22;6251;51.762;8.660;2023-05-10T05:29:16;12.60;99.90
12374;DHT22;6251;51.762;8.660;2023-05-10T05:39:16;12.60;99.90
12374;DHT22;6251;51.762;8.660;2023-05-10T05:49:17;12.70;99.90
12374;DHT22;6251;51.762;8.660;2023-05-10T05:59:18;12.80;99.90
12374;DHT22;6251;51.762;8.660;2023-05-10T06:09:18;12.80;99.90
12374;DHT22;6251;51.762;8.660;2023-05-10T06:19:19;12.70;99.90
12374;DHT22;6251;51.762;8.660;2023-05-10T06:29:19;12.70;99.90
12374;DHT22;6251;51.762;8.660;2023-05-10T06:39:20;12.70;99.90
12374;DHT22;6251;51.762;8.660;2023-05-10T06:49:39;12.90;99.90
12374;DHT22;6251;51.762;8.660;2023-05-10T06:59:40;13.00;99.90
12374;DHT22;6251;51.762;8.660;2023-05-10T07:09:40;13.30;99.90
12374;DHT22;6251;51.762;8.660;2023-05-10T07:19:41;13.50;99.90
12374;DHT22;6251;51.762;8.660;2023-05-10T07:29:42;13.70;99.90
12374;DHT22;6251;51.762;8.660;2023-05-10T07:39:42;13.90;99.90
12374;DHT22;6251;51.762;8.660;2023-05-10T07:49:43;14.20;99.90
12374;DHT22;6251;51.762;8.660;2023-05-10T07:59:43;14.40;99.90
12374;DHT22;6251;51.762;8.660;2023-05-10T08:09:45;14.80;99.90
12374;DHT22;6251;51.762;8.660;2023-05-10T08:19:46;14.50;99.90
12374;DHT22;6251;51.762;8.660;2023-05-10T08:29:46;14.50;99.90
12374;DHT22;6251;51.762;8.660;2023-05-10T08:39:47;14.80;99.90
12374;DHT22;6251;51.762;8.660;2023-05-10T08:49:48;14.90;99.90
12374;DHT22;6251;51.762;8.660;2023-05-10T08:59:51;14.70;99.90
12374;DHT22;6251;51.762;8.660;2023-05-10T09:09:52;14.90;99.90
12374;DHT22;6251;51.762;8.660;2023-05-10T09:20:00;15.30;99.90
12374;DHT22;6251;51.762;8.660;2023-05-10T09:30:02;15.80;99.90
12374;DHT22;6251;51.762;8.660;2023-05-10T09:40:05;16.00;99.90
12374;DHT22;6251;51.762;8.660;2023-05-10T09:50:06;16.20;99.90
12374;DHT22;6251;51.762;8.660;2023-05-10T10:00:08;16.80;99.90
12374;DHT22;6251;51.762;8.660;2023-05-10T10:10:10;16.90;99.90
12374;DHT22;6251;51.762;8.660;2023-05-10T10:20:12;16.70;99.90
12374;DHT22;6251;51.762;8.660;2023-05-10T10:40:37;17.10;99.90
12374;DHT22;6251;51.762;8.660;2023-05-10T10:50:45;17.10;99.90
12374;DHT22;6251;51.762;8.660;2023-05-10T11:00:46;16.90;99.90
12374;DHT22;6251;51.762;8.660;2023-05-10T11:21:03;17.00;99.90
12374;DHT22;6251;51.762;8.660;2023-05-10T11:31:05;17.60;99.90
12374;DHT22;6251;51.762;8.660;2023-05-10T11:41:08;17.80;99.90
12374;DHT22;6251;51.762;8.660;2023-05-10T11:51:11;17.90;99.90
12374;DHT22;6251;51.762;8.660;2023-05-10T12:01:11;18.30;99.90
12374;DHT22;6251;51.762;8.660;2023-05-10T12:11:12;18.70;99.90
12374;DHT22;6251;51.762;8.660;2023-05-10T12:21:19;17.80;99.90
12374;DHT22;6251;51.762;8.660;2023-05-10T12:31:20;16.10;99.90
12374;DHT22;6251;51.762;8.660;2023-05-10T12:41:20;15.70;99.90
12374;DHT22;6251;51.762;8.660;2023-05-10T12:51:21;16.40;99.90
12374;DHT22;6251;51.762;8.660;2023-05-10T13:01:22;16.60;99.90
12374;DHT22;6251;51.762;8.660;2023-05-10T13:11:23;16.80;99.90
12374;DHT22;6251;51.762;8.660;2023-05-10T13:21:24;17.60;99.90
12374;DHT22;6251;51.762;8.660;2023-05-10T13:31:25;18.00;99.90
12374;DHT22;6251;51.762;8.660;2023-05-10T13:41:25;17.40;99.90
12374;DHT22;6251;51.762;8.660;2023-05-10T13:51:26;17.10;99.90
12374;DHT22;6251;51.762;8.660;2023-05-10T14:01:27;16.60;99.90
12374;DHT22;6251;51.762;8.660;2023-05-10T14:11:27;15.10;99.90
12374;DHT22;6251;51.762;8.660;2023-05-10T14:21:28;14.30;99.90
12374;DHT22;6251;51.762;8.660;2023-05-10T14:31:31;13.80;99.90
12374;DHT22;6251;51.762;8.660;2023-05-10T14:41:32;14.00;99.90
12374;DHT22;6251;51.762;8.660;2023-05-10T14:51:33;13.80;99.90
12374;DHT22;6251;51.762;8.660;2023-05-10T15:01:33;14.10;99.90
12374;DHT22;6251;51.762;8.660;2023-05-10T15:11:37;14.30;99.90
12374;DHT22;6251;51.762;8.660;2023-05-10T15:21:38;14.50;99.90
12374;DHT22;6251;51.762;8.660;2023-05-10T15:31:39;14.50;99.90
12374;DHT22;6251;51.762;8.660;2023-05-10T15:41:39;14.40;99.90
12374;DHT22;6251;51.762;8.660;2023-05-10T15:51:40;14.20;99.90
12374;DHT22;6251;51.762;8.660;2023-05-10T16:01:41;14.20;99.90
12374;DHT22;6251;51.762;8.660;2023-05-10T16:11:42;14.00;99.90
12374;DHT22;6251;51.762;8.660;2023-05-10T16:21:43;14.00;99.90
12374;DHT22;6251;51.762;8.660;2023-05-10T16:31:44;13.90;99.90
12374;DHT22;6251;51.762;8.660;2023-05-10T16:41:45;13.90;99.90
12374;DHT22;6251;51.762;8.660;2023-05-10T16:51:46;13.80;99.90
12374;DHT22;6251;51.762;8.660;2023-05-10T17:01:46;13.70;99.90
12374;DHT22;6251;51.762;8.660;2023-05-10T17:11:47;13.50;99.90
12374;DHT22;6251;51.762;8.660;2023-05-10T17:21:48;13.60;99.90
12374;DHT22;6251;51.762;8.660;2023-05-10T17:31:48;13.60;99.90
12374;DHT22;6251;51.762;8.660;2023-05-10T17:41:49;13.40;99.90
12374;DHT22;6251;51.762;8.660;2023-05-10T17:51:49;13.40;99.90
12374;DHT22;6251;51.762;8.660;2023-05-10T18:01:50;13.30;99.90
12374;DHT22;6251;51.762;8.660;2023-05-10T18:11:51;13.30;99.90
12374;DHT22;6251;51.762;8.660;2023-05-10T18:21:51;13.30;99.90
12374;DHT22;6251;51.762;8.660;2023-05-10T18:31:52;13.30;99.90
12374;DHT22;6251;51.762;8.660;2023-05-10T18:41:52;13.20;99.90
12374;DHT22;6251;51.762;8.660;2023-05-10T18:51:53;13.20;99.90
12374;DHT22;6251;51.762;8.660;2023-05-10T19:01:54;13.20;99.90
12374;DHT22;6251;51.762;8.660;2023-05-10T19:11:55;13.20;99.90
12374;DHT22;6251;51.762;8.660;2023-05-10T19:21:56;13.20;99.90
12374;DHT22;6251;51.762;8.660;2023-05-10T19:31:56;13.10;99.90
12374;DHT22;6251;51.762;8.660;2023-05-10T19:41:57;13.10;99.90
12374;DHT22;6251;51.762;8.660;2023-05-10T19:51:59;13.10;99.90
12374;DHT22;6251;51.762;8.660;2023-05-10T20:02:00;13.00;99.90
12374;DHT22;6251;51.762;8.660;2023-05-10T20:12:01;13.00;99.90
12374;DHT22;6251;51.762;8.660;2023-05-10T20:22:02;12.90;99.90
12374;DHT22;6251;51.762;8.660;2023-05-10T20:32:05;12.80;99.90
12374;DHT22;6251;51.762;8.660;2023-05-10T20:42:06;13.00;99.90
12374;DHT22;6251;51.762;8.660;2023-05-10T20:52:07;12.90;99.90
12374;DHT22;6251;51.762;8.660;2023-05-10T23:04:12;12.70;99.90
12374;DHT22;6251;51.762;8.660;2023-05-10T23:14:12;12.70;99.90
